Portland, OR (97201)

8:32 PM PST on February 13, 2016 (GMT -0800)
Portland - West Hills | | Change Station
CLOSE
Current Station
Personal Weather Station
Location: Portland, OR
Elevation: 820 ft
Nearby Weather Stations

Elev 820 ft 45.49 °N, 122.69 °W | Updated 9 seconds ago

Rain
Rain
43.5 °F
Feels Like 37 °F
N
13.0
Wind Variable Wind from South
Gusts 22.0 mph

Today
High -- | Low -- °F
--% Chance of Precip.
Yesterday
High -- | Low -- °F
Precip. -- in
Pressure 30.22 in
Visibility 10.0 miles
Clouds Scattered Clouds 1900 ft
Overcast 4100 ft
Windchill 37 °F
Dew Point 43 °F
Humidity 98%
Rainfall 0.20 in
Snow Depth Not available.
7:16 AM 5:34 PM
Waxing Crescent, 37% visible
SPECI KPDX 140418Z 17008KT 10SM -RA SCT019 OVC041 08/06 A3022 RMK AO2 P0000 T00830061
Pressure 30.22 in
Visibility 10.0 miles
Clouds Scattered Clouds 1900 ft
Overcast 4100 ft
Windchill 37 °F
Dew Point 43 °F
Humidity 98%
Rainfall 0.20 in
Snow Depth Not available.
7:16 AM 5:34 PM
Waxing Crescent, 37% visible
SPECI KPDX 140418Z 17008KT 10SM -RA SCT019 OVC041 08/06 A3022 RMK AO2 P0000 T00830061

10-Day Weather Forecast

Almanac

Astronomy

Feb. 13, 2016 Rise Set
Actual Time
Civil Twilight
Nautical Twilight
Astronomical Twilight
Moon
Length of Visible Light
Length of Day
Tomorrow will be .
, % of the Moon is Illuminated

Today's Extremes

State Highs State Lows

Community

WunderPhotos

Upload Photos

1,892,746 photos uploaded!

WunderBlog® & News

Nearby

Air Quality

  Air Quality AQ Index Pollutant
Not available.

Snow Depth

Station Depth Elevation

Earthquake Activity

City Distance Mag. Time & Date
Minimum magnitude displayed is 2.5.

Coastal Water Temperatures

Place Temperature

Stations

Nearby Weather Stations

Station Location Temp. Windchill Dew Point Humidity Wind Precip. Elev Updated Type
                   

Watches & Warnings

There are currently no watches in effect.